createdAt,value
2023-04-23T00:00:43.886Z,3.08
2023-04-23T00:03:14.930Z,2.78
2023-04-23T00:05:44.749Z,2.88
2023-04-23T00:08:12.725Z,2.88
2023-04-23T00:10:40.716Z,3.45
2023-04-23T00:13:10.108Z,3.25
2023-04-23T00:15:38.225Z,2.70
2023-04-23T00:18:06.117Z,3.13
2023-04-23T00:20:35.507Z,4.35
2023-04-23T00:23:02.997Z,2.97
2023-04-23T00:25:30.612Z,3.10
2023-04-23T00:27:58.228Z,3.00
2023-04-23T00:30:25.831Z,3.00
2023-04-23T00:32:53.259Z,2.83
2023-04-23T00:35:21.125Z,4.05
2023-04-23T00:37:48.680Z,2.70
2023-04-23T00:40:16.207Z,3.90
2023-04-23T00:42:45.003Z,3.40
2023-04-23T00:45:12.710Z,2.55
2023-04-23T00:47:41.187Z,2.15
2023-04-23T00:50:08.946Z,2.33
2023-04-23T00:52:36.612Z,2.55
2023-04-23T00:55:04.980Z,2.13
2023-04-23T00:57:32.982Z,1.92
2023-04-23T01:00:00.979Z,1.40
2023-04-23T01:02:30.963Z,1.23
2023-04-23T01:05:00.912Z,1.52
2023-04-23T01:07:28.865Z,1.67
2023-04-23T01:09:56.616Z,1.63
2023-04-23T01:12:24.116Z,1.60
2023-04-23T01:14:52.151Z,1.63
2023-04-23T01:17:19.620Z,1.90
2023-04-23T01:19:47.212Z,1.50
2023-04-23T01:22:16.594Z,1.55
2023-04-23T01:24:44.245Z,2.33
2023-04-23T01:27:12.250Z,2.03
2023-04-23T01:29:40.636Z,2.47
2023-04-23T01:32:08.851Z,2.45
2023-04-23T01:34:39.679Z,2.85
2023-04-23T01:37:07.866Z,2.35
2023-04-23T01:39:37.140Z,2.28
2023-04-23T01:42:07.306Z,2.67
2023-04-23T01:44:34.794Z,2.50
2023-04-23T01:47:03.116Z,2.28
2023-04-23T01:49:32.575Z,2.47
2023-04-23T01:52:00.080Z,2.10
2023-04-23T01:54:27.660Z,2.20
2023-04-23T01:56:55.952Z,1.75
2023-04-23T01:59:23.837Z,2.22
2023-04-23T02:01:51.547Z,2.10
2023-04-23T02:04:19.822Z,2.03
2023-04-23T02:06:51.205Z,1.85
2023-04-23T02:09:18.797Z,2.05
2023-04-23T02:11:47.291Z,1.80
2023-04-23T02:14:15.198Z,3.00
2023-04-23T02:16:42.704Z,2.03
2023-04-23T02:19:10.279Z,2.22
2023-04-23T02:21:37.637Z,1.95
2023-04-23T02:24:05.556Z,2.47
2023-04-23T02:26:33.265Z,2.55
2023-04-23T02:29:00.757Z,2.58
2023-04-23T02:31:28.234Z,2.47
2023-04-23T02:33:55.780Z,2.60
2023-04-23T02:36:23.237Z,1.95
2023-04-23T02:38:51.339Z,1.70
2023-04-23T02:41:18.974Z,1.60
2023-04-23T02:43:46.994Z,1.92
2023-04-23T02:46:14.663Z,1.52
2023-04-23T02:48:42.511Z,1.38
2023-04-23T02:51:12.381Z,1.25
2023-04-23T02:53:40.011Z,1.52
2023-04-23T02:56:07.879Z,1.10
2023-04-23T02:58:35.831Z,1.10
2023-04-23T03:01:03.594Z,1.05
2023-04-23T03:03:32.657Z,0.95
2023-04-23T03:06:02.997Z,0.90
2023-04-23T03:08:30.647Z,0.73
2023-04-23T03:10:58.380Z,1.10
2023-04-23T03:13:27.076Z,0.80
2023-04-23T03:15:56.482Z,0.95
2023-04-23T03:18:24.229Z,1.40
2023-04-23T03:20:54.229Z,1.20
2023-04-23T03:23:21.767Z,0.88
2023-04-23T03:25:49.824Z,1.15
2023-04-23T03:28:17.380Z,1.00
2023-04-23T03:30:45.540Z,1.33
2023-04-23T03:33:13.025Z,1.02
2023-04-23T03:35:41.029Z,1.20
2023-04-23T03:38:13.712Z,0.82
2023-04-23T03:40:41.916Z,1.40
2023-04-23T03:43:11.021Z,1.08
2023-04-23T03:46:00.799Z,0.82
2023-04-23T03:48:30.047Z,1.30
2023-04-23T03:50:58.263Z,1.10
2023-04-23T03:53:35.398Z,1.30
2023-04-23T03:56:32.232Z,1.27
2023-04-23T03:59:14.689Z,0.98
2023-04-23T04:01:43.949Z,0.85
2023-04-23T04:04:11.893Z,1.35
2023-04-23T04:06:39.703Z,1.10
2023-04-23T04:09:09.916Z,1.20
2023-04-23T04:11:37.492Z,1.50
2023-04-23T04:14:05.077Z,1.90
2023-04-23T04:16:32.685Z,1.52
2023-04-23T04:19:01.540Z,1.70
2023-04-23T04:21:29.107Z,1.67
2023-04-23T04:23:57.090Z,1.58
2023-04-23T04:26:25.446Z,1.33
2023-04-23T04:28:53.425Z,1.10
2023-04-23T04:31:22.175Z,1.05
2023-04-23T04:33:49.718Z,1.65
2023-04-23T04:36:18.293Z,1.10
2023-04-23T04:38:45.711Z,1.42
2023-04-23T04:41:13.772Z,1.05
2023-04-23T04:43:41.550Z,1.15
2023-04-23T04:46:11.773Z,0.90
2023-04-23T04:48:39.377Z,1.73
2023-04-23T04:51:07.233Z,1.20
2023-04-23T04:53:36.193Z,1.65
2023-04-23T04:56:04.097Z,1.08
2023-04-23T04:58:31.985Z,1.35
2023-04-23T05:01:00.402Z,1.38
2023-04-23T05:03:28.218Z,1.00
2023-04-23T05:05:56.544Z,1.63
2023-04-23T05:08:24.435Z,1.45
2023-04-23T05:10:52.241Z,1.15
2023-04-23T05:13:19.802Z,1.58
2023-04-23T05:15:47.368Z,1.15
2023-04-23T05:20:43.048Z,1.50
2023-04-23T05:23:10.478Z,1.55
2023-04-23T05:25:38.232Z,1.20
2023-04-23T05:28:05.722Z,1.70
2023-04-23T05:30:33.220Z,1.58
2023-04-23T05:33:00.766Z,1.65
2023-04-23T05:35:28.454Z,1.75
2023-04-23T05:37:56.838Z,1.60
2023-04-23T05:40:24.372Z,1.90
2023-04-23T05:42:51.833Z,1.90
2023-04-23T05:45:19.288Z,2.70
2023-04-23T05:47:46.799Z,1.65
2023-04-23T05:50:14.404Z,2.75
2023-04-23T05:52:41.941Z,1.63
2023-04-23T05:55:10.327Z,1.67
2023-04-23T05:57:38.677Z,1.83
2023-04-23T06:00:09.912Z,2.13
2023-04-23T06:02:41.919Z,1.80
2023-04-23T06:05:10.576Z,2.00
2023-04-23T06:07:38.394Z,1.60
2023-04-23T06:10:06.830Z,1.50
2023-04-23T06:12:34.239Z,1.70
2023-04-23T06:15:01.870Z,1.40
2023-04-23T06:17:29.356Z,1.92
2023-04-23T06:19:57.109Z,1.63
2023-04-23T06:22:25.704Z,3.42
2023-04-23T06:24:53.175Z,2.13
2023-04-23T06:29:50.828Z,2.08
2023-04-23T06:32:20.508Z,2.53
2023-04-23T06:35:00.189Z,2.08
2023-04-23T06:37:30.923Z,2.20
2023-04-23T06:39:59.367Z,1.73
2023-04-23T06:42:26.995Z,1.70
2023-04-23T06:45:17.342Z,1.90
2023-04-23T06:47:45.313Z,1.88
2023-04-23T06:50:12.844Z,1.90
2023-04-23T06:52:40.545Z,1.80
2023-04-23T06:55:08.721Z,2.22
2023-04-23T06:57:36.324Z,1.90
2023-04-23T07:00:06.703Z,2.00
2023-04-23T07:02:38.116Z,2.13
2023-04-23T07:05:05.908Z,1.85
2023-04-23T07:07:37.607Z,1.60
2023-04-23T07:10:06.191Z,1.70
2023-04-23T07:12:33.634Z,1.38
2023-04-23T07:15:01.250Z,1.50
2023-04-23T07:17:28.688Z,1.48
2023-04-23T07:19:56.169Z,0.60
2023-04-23T07:24:52.986Z,0.30
2023-04-23T07:27:21.259Z,0.10
2023-04-23T07:29:49.658Z,0.10
2023-04-23T07:32:17.400Z,0.10
2023-04-23T07:34:45.130Z,0.10
2023-04-23T07:37:12.713Z,0.35
2023-04-23T07:39:42.599Z,0.20
2023-04-23T07:42:11.680Z,0.40
2023-04-23T07:44:39.106Z,0.28
2023-04-23T07:47:06.994Z,0.17
2023-04-23T07:49:34.753Z,0.20
2023-04-23T07:52:02.265Z,0.20
2023-04-23T07:54:29.692Z,0.17
2023-04-23T07:56:57.541Z,0.20
2023-04-23T07:59:24.930Z,0.13
2023-04-23T08:01:52.821Z,0.25
2023-04-23T08:04:20.812Z,0.40
2023-04-23T08:06:48.619Z,0.20
2023-04-23T08:09:16.017Z,0.20
2023-04-23T08:11:43.651Z,0.20
2023-04-23T08:14:11.365Z,0.22
2023-04-23T08:16:39.220Z,0.20
2023-04-23T08:19:07.066Z,0.55
2023-04-23T08:21:36.288Z,0.40
2023-04-23T08:24:04.436Z,0.10
2023-04-23T08:26:32.120Z,0.35
2023-04-23T08:29:01.022Z,0.47
2023-04-23T08:31:28.785Z,0.40
2023-04-23T08:33:56.633Z,0.30
2023-04-23T08:36:24.796Z,0.30
2023-04-23T08:38:52.238Z,0.30
2023-04-23T08:41:24.120Z,0.30
2023-04-23T08:43:58.663Z,0.52
2023-04-23T08:46:32.092Z,0.30
2023-04-23T08:49:01.086Z,0.40
2023-04-23T08:51:31.063Z,0.30
2023-04-23T08:54:02.660Z,0.30
2023-04-23T08:56:31.240Z,0.52
2023-04-23T08:58:58.929Z,0.35
2023-04-23T09:01:30.333Z,0.30
2023-04-23T09:03:58.454Z,0.20
2023-04-23T09:06:26.548Z,0.40
2023-04-23T09:08:55.499Z,0.35
2023-04-23T09:11:24.294Z,0.40
2023-04-23T09:13:52.022Z,0.22
2023-04-23T09:16:19.461Z,0.22
2023-04-23T09:18:47.119Z,0.32
2023-04-23T09:21:14.471Z,0.43
2023-04-23T09:23:43.255Z,0.32
2023-04-23T09:26:10.646Z,0.47
2023-04-23T09:28:38.589Z,0.40
2023-04-23T09:31:06.480Z,0.50
2023-04-23T09:33:36.969Z,0.63
2023-04-23T09:36:13.881Z,0.73
2023-04-23T09:38:41.771Z,0.52
2023-04-23T09:41:26.129Z,1.00
2023-04-23T09:43:55.176Z,0.88
2023-04-23T09:46:43.086Z,0.65
2023-04-23T09:49:12.532Z,0.90
2023-04-23T09:51:41.643Z,1.20
2023-04-23T09:54:16.469Z,0.80
2023-04-23T09:56:44.589Z,1.13
2023-04-23T09:59:47.106Z,1.10
2023-04-23T10:02:19.016Z,1.07
2023-04-23T10:04:56.293Z,0.77
2023-04-23T10:07:29.564Z,1.10
2023-04-23T10:09:57.126Z,1.20
2023-04-23T10:14:57.539Z,1.40
2023-04-23T10:17:25.101Z,1.40
2023-04-23T10:19:52.547Z,1.30
2023-04-23T10:22:22.078Z,1.08
2023-04-23T10:24:56.420Z,1.48
2023-04-23T10:27:44.140Z,0.82
2023-04-23T10:30:16.202Z,1.50
2023-04-23T10:32:45.328Z,1.02
2023-04-23T10:35:12.985Z,1.90
2023-04-23T10:37:41.797Z,1.10
2023-04-23T10:40:14.801Z,1.20
2023-04-23T10:42:44.972Z,1.33
2023-04-23T10:47:57.369Z,1.20
2023-04-23T10:50:30.400Z,1.42
2023-04-23T10:52:58.859Z,1.77
2023-04-23T10:55:28.633Z,1.88
2023-04-23T10:58:07.620Z,1.10
2023-04-23T11:00:41.281Z,1.25
2023-04-23T11:03:32.906Z,1.20
2023-04-23T11:06:05.030Z,1.23
2023-04-23T11:08:35.126Z,1.00
2023-04-23T11:11:07.565Z,1.40
2023-04-23T11:13:35.208Z,1.30
2023-04-23T11:16:22.898Z,1.35
2023-04-23T11:18:57.619Z,1.15
2023-04-23T11:21:56.251Z,1.52
2023-04-23T11:24:24.877Z,1.50
2023-04-23T11:26:56.197Z,1.15
2023-04-23T11:29:26.395Z,1.58
2023-04-23T11:32:02.714Z,1.27
2023-04-23T11:34:33.057Z,1.30
2023-04-23T11:37:01.403Z,1.25
2023-04-23T11:39:28.970Z,1.60
2023-04-23T11:41:57.918Z,1.58
2023-04-23T11:44:25.600Z,1.35
2023-04-23T11:46:53.119Z,1.17
2023-04-23T11:49:21.836Z,1.60
2023-04-23T11:51:49.537Z,1.40
2023-04-23T11:54:17.050Z,1.13
2023-04-23T11:56:45.014Z,1.15
2023-04-23T11:59:12.454Z,0.70
2023-04-23T12:01:42.453Z,0.93
2023-04-23T12:04:16.700Z,0.70
2023-04-23T12:06:46.964Z,0.80
2023-04-23T12:09:15.989Z,1.00
2023-04-23T12:11:44.757Z,0.47
2023-04-23T12:14:13.958Z,0.45
2023-04-23T12:16:45.841Z,0.40
2023-04-23T12:19:15.646Z,0.52
2023-04-23T12:21:56.587Z,0.60
2023-04-23T12:24:29.165Z,0.50
2023-04-23T12:27:00.884Z,0.63
2023-04-23T12:29:31.316Z,0.43
2023-04-23T12:32:00.535Z,0.73
2023-04-23T12:34:28.027Z,0.47
2023-04-23T12:36:57.853Z,0.55
2023-04-23T12:39:37.267Z,0.38
2023-04-23T12:42:06.984Z,0.60
2023-04-23T12:44:36.522Z,0.80
2023-04-23T12:47:07.561Z,0.65
2023-04-23T12:49:36.779Z,0.77
2023-04-23T12:52:06.352Z,0.68
2023-04-23T12:54:37.541Z,0.65
2023-04-23T12:57:11.671Z,0.60
2023-04-23T12:59:39.328Z,0.90
2023-04-23T13:02:07.414Z,0.80
2023-04-23T13:04:36.526Z,1.15
2023-04-23T13:07:04.586Z,0.85
2023-04-23T13:09:32.236Z,1.10
2023-04-23T13:12:00.565Z,1.10
2023-04-23T13:14:28.641Z,1.08
2023-04-23T13:16:58.046Z,0.60
2023-04-23T13:19:26.483Z,0.70
2023-04-23T13:21:53.974Z,0.63
2023-04-23T13:24:21.665Z,0.85
2023-04-23T13:26:49.379Z,0.63
2023-04-23T13:29:17.001Z,0.50
2023-04-23T13:31:44.498Z,0.70
2023-04-23T13:34:12.090Z,0.90
2023-04-23T13:36:41.703Z,0.80
2023-04-23T13:39:11.085Z,0.70
2023-04-23T13:41:38.594Z,0.60
2023-04-23T13:44:06.540Z,1.13
2023-04-23T13:46:34.034Z,0.90
2023-04-23T13:49:01.602Z,0.80
2023-04-23T13:51:35.364Z,0.73
2023-04-23T13:54:03.691Z,0.90
2023-04-23T13:56:31.865Z,0.85
2023-04-23T13:59:17.476Z,0.73
2023-04-23T14:01:50.295Z,1.40
2023-04-23T14:04:19.072Z,1.70
2023-04-23T14:06:46.654Z,2.85
2023-04-23T14:09:14.303Z,1.40
2023-04-23T14:11:41.907Z,1.90
2023-04-23T14:14:09.472Z,1.52
2023-04-23T14:16:36.884Z,1.77
2023-04-23T14:19:04.405Z,1.80
2023-04-23T14:21:32.278Z,1.90
2023-04-23T14:24:10.373Z,1.80
2023-04-23T14:26:48.038Z,1.90
2023-04-23T14:29:29.078Z,1.50
2023-04-23T14:31:56.837Z,1.40
2023-04-23T14:34:24.284Z,1.15
2023-04-23T14:36:53.384Z,1.27
2023-04-23T14:39:23.502Z,1.33
2023-04-23T14:41:50.962Z,1.40
2023-04-23T14:44:18.698Z,1.48
2023-04-23T14:46:46.430Z,1.35
2023-04-23T14:49:14.362Z,1.20
2023-04-23T14:51:42.206Z,1.33
2023-04-23T14:54:10.393Z,1.52
2023-04-23T14:56:38.119Z,1.50
2023-04-23T14:59:05.666Z,1.30
2023-04-23T15:01:33.233Z,1.75
2023-04-23T15:04:00.979Z,1.38
2023-04-23T15:06:28.663Z,1.95
2023-04-23T15:08:56.115Z,1.63
2023-04-23T15:11:23.678Z,2.72
2023-04-23T15:14:20.947Z,2.03
2023-04-23T15:16:49.704Z,2.08
2023-04-23T15:19:18.367Z,2.00
2023-04-23T15:21:47.318Z,2.15
2023-04-23T15:24:16.855Z,2.03
2023-04-23T15:26:46.069Z,2.13
2023-04-23T15:29:13.956Z,2.22
2023-04-23T15:31:41.990Z,1.92
2023-04-23T15:34:09.897Z,2.08
2023-04-23T15:36:38.208Z,2.22
2023-04-23T15:39:07.219Z,2.05
2023-04-23T15:41:39.496Z,2.40
2023-04-23T15:44:11.373Z,2.17
2023-04-23T15:46:38.876Z,1.83
2023-04-23T15:49:06.359Z,2.63
2023-04-23T15:51:33.891Z,2.25
2023-04-23T15:54:02.262Z,2.10
2023-04-23T15:56:29.866Z,2.60
2023-04-23T15:58:57.312Z,2.30
2023-04-23T16:01:27.141Z,2.30
2023-04-23T16:04:09.737Z,2.03
2023-04-23T16:06:38.995Z,2.53
2023-04-23T16:09:09.342Z,2.30
2023-04-23T16:11:38.187Z,2.30
2023-04-23T16:14:06.388Z,2.67
2023-04-23T16:16:33.985Z,2.30
2023-04-23T16:19:02.957Z,2.30
2023-04-23T16:21:32.267Z,1.83
2023-04-23T16:23:59.914Z,1.77
2023-04-23T16:26:29.128Z,1.73
2023-04-23T16:29:16.790Z,1.67
2023-04-23T16:31:44.623Z,1.75
2023-04-23T16:34:12.113Z,1.85
2023-04-23T16:36:39.816Z,2.20
2023-04-23T16:39:07.300Z,1.63
2023-04-23T16:41:34.824Z,2.10
2023-04-23T16:44:02.227Z,1.95
2023-04-23T16:46:31.460Z,2.10
2023-04-23T16:48:59.891Z,1.80
2023-04-23T16:51:28.819Z,2.35
2023-04-23T16:53:59.426Z,2.58
2023-04-23T16:56:27.498Z,1.98
2023-04-23T16:58:54.914Z,1.85
2023-04-23T17:01:22.625Z,1.83
2023-04-23T17:03:50.352Z,2.17
2023-04-23T17:06:26.416Z,2.08
2023-04-23T17:08:55.124Z,2.03
2023-04-23T17:11:23.196Z,2.05
2023-04-23T17:13:54.318Z,1.90
2023-04-23T17:16:22.300Z,2.20
2023-04-23T17:18:49.841Z,2.30
2023-04-23T17:21:17.485Z,2.05
2023-04-23T17:23:45.818Z,2.65
2023-04-23T17:26:13.533Z,1.67
2023-04-23T17:28:40.956Z,2.10
2023-04-23T17:31:08.998Z,2.42
2023-04-23T17:33:36.472Z,2.00
2023-04-23T17:36:04.515Z,2.08
2023-04-23T17:38:32.066Z,2.20
2023-04-23T17:40:59.750Z,2.13
2023-04-23T17:43:27.664Z,1.98
2023-04-23T17:45:55.285Z,2.10
2023-04-23T17:48:23.407Z,2.53
2023-04-23T17:50:51.291Z,2.28
2023-04-23T17:53:18.752Z,2.10
2023-04-23T17:55:46.486Z,2.40
2023-04-23T17:58:14.317Z,2.67
2023-04-23T18:00:43.162Z,2.15
2023-04-23T18:03:14.647Z,2.25
2023-04-23T18:05:42.468Z,2.13
2023-04-23T18:08:10.036Z,2.30
2023-04-23T18:10:37.554Z,2.50
2023-04-23T18:13:05.399Z,2.40
2023-04-23T18:15:33.128Z,2.80
2023-04-23T18:18:00.921Z,2.20
2023-04-23T18:20:28.494Z,2.30
2023-04-23T18:22:55.948Z,2.50
2023-04-23T18:25:25.439Z,1.90
2023-04-23T18:27:53.147Z,2.08
2023-04-23T18:30:23.521Z,2.10
2023-04-23T18:33:00.919Z,1.50
2023-04-23T18:35:28.631Z,1.98
2023-04-23T18:38:04.709Z,2.13
2023-04-23T18:40:32.566Z,2.27
2023-04-23T18:43:00.029Z,1.80
2023-04-23T18:45:27.635Z,2.40
2023-04-23T18:48:06.307Z,2.60
2023-04-23T18:50:44.549Z,2.83
2023-04-23T18:53:12.064Z,2.10
2023-04-23T18:55:39.434Z,2.25
2023-04-23T18:58:07.098Z,2.15
2023-04-23T19:00:35.010Z,2.25
2023-04-23T19:03:06.591Z,2.13
2023-04-23T19:05:37.015Z,1.90
2023-04-23T19:08:04.640Z,1.90
2023-04-23T19:10:32.093Z,2.80
2023-04-23T19:12:59.575Z,2.72
2023-04-23T19:15:27.110Z,3.25
2023-04-23T19:17:54.732Z,3.63
2023-04-23T19:20:22.344Z,3.78
2023-04-23T19:22:49.916Z,3.85
2023-04-23T19:25:17.642Z,3.90
2023-04-23T19:27:45.081Z,3.10
2023-04-23T19:30:12.805Z,2.83
2023-04-23T19:32:40.509Z,3.20
2023-04-23T19:35:08.408Z,3.10
2023-04-23T19:37:37.055Z,4.05
2023-04-23T19:40:05.041Z,4.50
2023-04-23T19:42:32.783Z,4.28
2023-04-23T19:45:00.253Z,4.30
2023-04-23T19:47:27.744Z,4.53
2023-04-23T19:49:55.915Z,4.70
2023-04-23T19:52:25.468Z,4.10
2023-04-23T19:54:53.188Z,3.33
2023-04-23T19:57:22.308Z,3.20
2023-04-23T19:59:49.841Z,3.55
2023-04-23T20:02:17.404Z,3.40
2023-04-23T20:04:45.903Z,2.97
2023-04-23T20:07:13.523Z,2.60
2023-04-23T20:09:44.467Z,3.25
2023-04-23T20:12:13.760Z,2.50
2023-04-23T20:14:42.585Z,2.97
2023-04-23T20:17:10.294Z,2.67
2023-04-23T20:19:38.542Z,2.40
2023-04-23T20:22:06.969Z,2.63
2023-04-23T20:24:35.833Z,2.40
2023-04-23T20:27:03.430Z,2.38
2023-04-23T20:29:30.912Z,2.40
2023-04-23T20:31:58.598Z,2.75
2023-04-23T20:34:26.286Z,3.05
2023-04-23T20:36:53.843Z,2.80
2023-04-23T20:39:24.398Z,2.60
2023-04-23T20:41:52.623Z,2.55
2023-04-23T20:44:23.326Z,2.60
2023-04-23T20:46:51.490Z,2.47
2023-04-23T20:49:19.040Z,3.05
2023-04-23T20:51:46.753Z,2.65
2023-04-23T20:54:14.255Z,2.55
2023-04-23T20:56:41.768Z,2.63
2023-04-23T20:59:09.316Z,2.78
2023-04-23T21:01:37.906Z,2.83
2023-04-23T21:04:05.530Z,3.00
2023-04-23T21:06:33.509Z,2.90
2023-04-23T21:09:01.017Z,3.22
2023-04-23T21:11:29.353Z,2.92
2023-04-23T21:13:59.457Z,2.75
2023-04-23T21:16:28.203Z,3.25
2023-04-23T21:18:55.824Z,3.20
2023-04-23T21:21:27.977Z,2.97
2023-04-23T21:23:56.680Z,2.78
2023-04-23T21:26:24.332Z,2.72
2023-04-23T21:28:52.033Z,2.80
2023-04-23T21:31:47.098Z,3.08
2023-04-23T21:34:15.591Z,3.10
2023-04-23T21:36:46.680Z,3.05
2023-04-23T21:39:14.637Z,3.42
2023-04-23T21:41:42.410Z,3.08
2023-04-23T21:44:10.057Z,2.92
2023-04-23T21:46:37.580Z,3.30
2023-04-23T21:49:05.288Z,3.00
2023-04-23T21:51:37.121Z,2.90
2023-04-23T21:54:08.167Z,3.20
2023-04-23T21:56:35.941Z,3.05
2023-04-23T21:59:03.479Z,3.03
2023-04-23T22:01:32.451Z,3.10
2023-04-23T22:04:01.812Z,3.50
2023-04-23T22:06:29.933Z,3.53
2023-04-23T22:08:57.924Z,3.53
2023-04-23T22:11:26.173Z,3.50
2023-04-23T22:13:53.902Z,3.47
2023-04-23T22:16:28.811Z,2.92
2023-04-23T22:18:57.788Z,3.08
2023-04-23T22:21:25.481Z,3.45
2023-04-23T22:23:53.098Z,3.38
2023-04-23T22:26:21.767Z,2.83
2023-04-23T22:28:49.295Z,3.03
2023-04-23T22:31:17.486Z,3.67
2023-04-23T22:33:45.470Z,3.50
2023-04-23T22:36:14.134Z,3.83
2023-04-23T22:38:41.794Z,3.30
2023-04-23T22:41:09.222Z,2.88
2023-04-23T22:43:36.722Z,3.20
2023-04-23T22:46:04.262Z,2.70
2023-04-23T22:48:31.918Z,2.92
2023-04-23T22:50:59.411Z,2.63
2023-04-23T22:53:26.932Z,2.60
2023-04-23T22:58:21.632Z,2.65
2023-04-23T23:00:49.106Z,2.50
2023-04-23T23:03:16.852Z,2.83
2023-04-23T23:05:44.543Z,2.75
2023-04-23T23:08:12.144Z,2.33
2023-04-23T23:10:39.636Z,2.97
2023-04-23T23:13:07.310Z,3.03
2023-04-23T23:15:34.852Z,3.30
2023-04-23T23:18:02.467Z,3.10
2023-04-23T23:20:29.979Z,2.90
2023-04-23T23:22:57.573Z,3.10
2023-04-23T23:25:24.965Z,3.10
2023-04-23T23:27:52.961Z,3.08
2023-04-23T23:30:20.678Z,2.72
2023-04-23T23:32:48.548Z,3.05
2023-04-23T23:35:16.002Z,2.50
2023-04-23T23:37:43.527Z,3.30
2023-04-23T23:40:11.462Z,2.70
2023-04-23T23:42:38.999Z,3.13
2023-04-23T23:45:07.177Z,2.58
2023-04-23T23:47:34.664Z,2.45
2023-04-23T23:50:02.175Z,2.30
2023-04-23T23:52:29.752Z,2.83
2023-04-23T23:54:57.109Z,2.60
2023-04-23T23:57:24.573Z,2.42
2023-04-23T23:59:52.206Z,2.15
